sensor_id;sensor_type;location;lat;lon;timestamp;P1;durP1;ratioP1;P2;durP2;ratioP2
46751;SDS011;32497;48.936;9.270;2023-04-06T00:03:57;1.23;;;0.83;;
46751;SDS011;32497;48.936;9.270;2023-04-06T00:08:59;0.50;;;0.50;;
46751;SDS011;32497;48.936;9.270;2023-04-06T00:14:00;0.23;;;0.20;;
46751;SDS011;32497;48.936;9.270;2023-04-06T00:19:03;1.27;;;0.50;;
46751;SDS011;32497;48.936;9.270;2023-04-06T00:24:04;2.07;;;0.70;;
46751;SDS011;32497;48.936;9.270;2023-04-06T00:29:05;0.30;;;0.30;;
46751;SDS011;32497;48.936;9.270;2023-04-06T00:34:09;0.20;;;0.17;;
46751;SDS011;32497;48.936;9.270;2023-04-06T00:39:10;0.60;;;0.40;;
46751;SDS011;32497;48.936;9.270;2023-04-06T00:44:11;0.40;;;0.40;;
46751;SDS011;32497;48.936;9.270;2023-04-06T00:49:14;0.50;;;0.30;;
46751;SDS011;32497;48.936;9.270;2023-04-06T00:54:15;0.77;;;0.40;;
46751;SDS011;32497;48.936;9.270;2023-04-06T00:59:17;3.10;;;1.13;;
46751;SDS011;32497;48.936;9.270;2023-04-06T01:04:20;2.20;;;0.40;;
46751;SDS011;32497;48.936;9.270;2023-04-06T01:09:21;0.43;;;0.43;;
46751;SDS011;32497;48.936;9.270;2023-04-06T01:14:27;1.70;;;0.30;;
46751;SDS011;32497;48.936;9.270;2023-04-06T01:19:34;0.83;;;0.10;;
46751;SDS011;32497;48.936;9.270;2023-04-06T01:24:38;1.87;;;0.80;;
46751;SDS011;32497;48.936;9.270;2023-04-06T01:29:57;1.00;;;0.30;;
46751;SDS011;32497;48.936;9.270;2023-04-06T01:35:11;0.30;;;0.27;;
46751;SDS011;32497;48.936;9.270;2023-04-06T01:40:21;0.40;;;0.30;;
46751;SDS011;32497;48.936;9.270;2023-04-06T01:45:25;0.87;;;0.47;;
46751;SDS011;32497;48.936;9.270;2023-04-06T01:50:39;1.00;;;0.90;;
46751;SDS011;32497;48.936;9.270;2023-04-06T01:55:42;1.23;;;0.20;;
46751;SDS011;32497;48.936;9.270;2023-04-06T02:00:55;0.53;;;0.43;;
46751;SDS011;32497;48.936;9.270;2023-04-06T02:05:58;0.97;;;0.33;;
46751;SDS011;32497;48.936;9.270;2023-04-06T02:11:05;0.17;;;0.13;;
46751;SDS011;32497;48.936;9.270;2023-04-06T02:16:16;1.43;;;0.30;;
46751;SDS011;32497;48.936;9.270;2023-04-06T02:21:21;1.67;;;0.33;;
46751;SDS011;32497;48.936;9.270;2023-04-06T02:26:22;0.63;;;0.60;;
46751;SDS011;32497;48.936;9.270;2023-04-06T02:31:23;0.00;;;0.00;;
46751;SDS011;32497;48.936;9.270;2023-04-06T02:36:28;0.10;;;0.10;;
46751;SDS011;32497;48.936;9.270;2023-04-06T02:41:29;1.10;;;0.53;;
46751;SDS011;32497;48.936;9.270;2023-04-06T02:46:32;0.20;;;0.20;;
46751;SDS011;32497;48.936;9.270;2023-04-06T02:51:35;0.10;;;0.10;;
46751;SDS011;32497;48.936;9.270;2023-04-06T02:57:11;0.10;;;0.10;;
46751;SDS011;32497;48.936;9.270;2023-04-06T03:02:17;0.43;;;0.43;;
46751;SDS011;32497;48.936;9.270;2023-04-06T03:07:21;8.40;;;0.77;;
46751;SDS011;32497;48.936;9.270;2023-04-06T03:12:22;0.20;;;0.20;;
46751;SDS011;32497;48.936;9.270;2023-04-06T03:17:42;5.03;;;0.57;;
46751;SDS011;32497;48.936;9.270;2023-04-06T03:22:52;0.70;;;0.23;;
46751;SDS011;32497;48.936;9.270;2023-04-06T03:27:58;0.20;;;0.10;;
46751;SDS011;32497;48.936;9.270;2023-04-06T03:32:59;0.40;;;0.40;;
46751;SDS011;32497;48.936;9.270;2023-04-06T03:38:05;0.43;;;0.43;;
46751;SDS011;32497;48.936;9.270;2023-04-06T03:43:06;0.83;;;0.43;;
46751;SDS011;32497;48.936;9.270;2023-04-06T03:48:10;0.00;;;0.00;;
46751;SDS011;32497;48.936;9.270;2023-04-06T03:53:14;0.83;;;0.20;;
46751;SDS011;32497;48.936;9.270;2023-04-06T03:58:15;0.17;;;0.10;;
46751;SDS011;32497;48.936;9.270;2023-04-06T04:03:16;1.00;;;0.73;;
46751;SDS011;32497;48.936;9.270;2023-04-06T04:08:19;0.10;;;0.10;;
46751;SDS011;32497;48.936;9.270;2023-04-06T04:13:20;0.00;;;0.00;;
46751;SDS011;32497;48.936;9.270;2023-04-06T04:18:24;0.93;;;0.63;;
46751;SDS011;32497;48.936;9.270;2023-04-06T04:23:26;1.10;;;0.67;;
46751;SDS011;32497;48.936;9.270;2023-04-06T04:28:27;1.23;;;0.73;;
46751;SDS011;32497;48.936;9.270;2023-04-06T04:33:30;0.87;;;0.37;;
46751;SDS011;32497;48.936;9.270;2023-04-06T04:38:34;0.10;;;0.10;;
46751;SDS011;32497;48.936;9.270;2023-04-06T04:43:36;0.00;;;0.00;;
46751;SDS011;32497;48.936;9.270;2023-04-06T04:48:37;0.33;;;0.33;;
46751;SDS011;32497;48.936;9.270;2023-04-06T04:53:42;0.67;;;0.23;;
46751;SDS011;32497;48.936;9.270;2023-04-06T04:58:53;0.70;;;0.30;;
46751;SDS011;32497;48.936;9.270;2023-04-06T05:03:55;2.13;;;0.47;;
46751;SDS011;32497;48.936;9.270;2023-04-06T05:08:58;0.27;;;0.27;;
46751;SDS011;32497;48.936;9.270;2023-04-06T05:14:00;0.40;;;0.20;;
46751;SDS011;32497;48.936;9.270;2023-04-06T05:19:01;1.07;;;0.33;;
46751;SDS011;32497;48.936;9.270;2023-04-06T05:24:13;0.20;;;0.20;;
46751;SDS011;32497;48.936;9.270;2023-04-06T05:29:16;0.30;;;0.10;;
46751;SDS011;32497;48.936;9.270;2023-04-06T05:34:17;0.43;;;0.43;;
46751;SDS011;32497;48.936;9.270;2023-04-06T05:39:21;0.30;;;0.27;;
46751;SDS011;32497;48.936;9.270;2023-04-06T05:44:24;0.20;;;0.20;;
46751;SDS011;32497;48.936;9.270;2023-04-06T05:49:35;0.43;;;0.43;;
46751;SDS011;32497;48.936;9.270;2023-04-06T05:54:40;0.53;;;0.23;;
46751;SDS011;32497;48.936;9.270;2023-04-06T05:59:42;0.77;;;0.67;;
46751;SDS011;32497;48.936;9.270;2023-04-06T06:04:45;1.50;;;0.87;;
46751;SDS011;32497;48.936;9.270;2023-04-06T06:09:49;0.37;;;0.17;;
46751;SDS011;32497;48.936;9.270;2023-04-06T06:14:56;0.37;;;0.33;;
46751;SDS011;32497;48.936;9.270;2023-04-06T06:20:00;0.77;;;0.30;;
46751;SDS011;32497;48.936;9.270;2023-04-06T06:25:04;1.13;;;0.87;;
46751;SDS011;32497;48.936;9.270;2023-04-06T06:30:06;3.23;;;0.90;;
46751;SDS011;32497;48.936;9.270;2023-04-06T06:35:10;1.27;;;0.93;;
46751;SDS011;32497;48.936;9.270;2023-04-06T06:40:13;0.70;;;0.23;;
46751;SDS011;32497;48.936;9.270;2023-04-06T06:45:16;1.23;;;0.50;;
46751;SDS011;32497;48.936;9.270;2023-04-06T06:50:17;1.53;;;1.00;;
46751;SDS011;32497;48.936;9.270;2023-04-06T06:55:20;2.67;;;0.53;;
46751;SDS011;32497;48.936;9.270;2023-04-06T07:00:22;1.70;;;0.90;;
46751;SDS011;32497;48.936;9.270;2023-04-06T07:05:24;1.63;;;0.73;;
46751;SDS011;32497;48.936;9.270;2023-04-06T07:10:27;0.80;;;0.50;;
46751;SDS011;32497;48.936;9.270;2023-04-06T07:15:28;1.27;;;1.17;;
46751;SDS011;32497;48.936;9.270;2023-04-06T07:20:29;2.23;;;1.10;;
46751;SDS011;32497;48.936;9.270;2023-04-06T07:25:32;6.00;;;1.60;;
46751;SDS011;32497;48.936;9.270;2023-04-06T07:30:33;2.90;;;1.30;;
46751;SDS011;32497;48.936;9.270;2023-04-06T07:35:34;4.53;;;1.53;;
46751;SDS011;32497;48.936;9.270;2023-04-06T07:40:38;1.77;;;1.30;;
46751;SDS011;32497;48.936;9.270;2023-04-06T07:45:39;2.50;;;1.30;;
46751;SDS011;32497;48.936;9.270;2023-04-06T07:50:40;3.67;;;1.57;;
46751;SDS011;32497;48.936;9.270;2023-04-06T07:55:44;4.00;;;1.90;;
46751;SDS011;32497;48.936;9.270;2023-04-06T08:00:45;2.27;;;1.40;;
46751;SDS011;32497;48.936;9.270;2023-04-06T08:05:46;4.13;;;1.83;;
46751;SDS011;32497;48.936;9.270;2023-04-06T08:10:49;4.20;;;2.57;;
46751;SDS011;32497;48.936;9.270;2023-04-06T08:15:50;6.83;;;1.87;;
46751;SDS011;32497;48.936;9.270;2023-04-06T08:20:51;4.00;;;2.17;;
46751;SDS011;32497;48.936;9.270;2023-04-06T08:25:54;4.20;;;1.93;;
46751;SDS011;32497;48.936;9.270;2023-04-06T08:30:55;5.20;;;1.70;;
46751;SDS011;32497;48.936;9.270;2023-04-06T08:35:56;4.33;;;2.90;;
46751;SDS011;32497;48.936;9.270;2023-04-06T08:40:59;4.97;;;2.10;;
46751;SDS011;32497;48.936;9.270;2023-04-06T08:46:00;3.17;;;2.03;;
46751;SDS011;32497;48.936;9.270;2023-04-06T08:51:02;6.13;;;2.73;;
46751;SDS011;32497;48.936;9.270;2023-04-06T08:56:06;8.23;;;2.37;;
46751;SDS011;32497;48.936;9.270;2023-04-06T09:01:11;3.40;;;1.80;;
46751;SDS011;32497;48.936;9.270;2023-04-06T09:06:14;5.90;;;2.30;;
46751;SDS011;32497;48.936;9.270;2023-04-06T09:11:17;6.57;;;2.33;;
46751;SDS011;32497;48.936;9.270;2023-04-06T09:16:18;5.67;;;2.60;;
46751;SDS011;32497;48.936;9.270;2023-04-06T09:21:20;5.30;;;2.50;;
46751;SDS011;32497;48.936;9.270;2023-04-06T09:26:23;6.20;;;2.57;;
46751;SDS011;32497;48.936;9.270;2023-04-06T09:31:24;6.27;;;2.50;;
46751;SDS011;32497;48.936;9.270;2023-04-06T09:36:30;5.03;;;2.63;;
46751;SDS011;32497;48.936;9.270;2023-04-06T09:41:33;4.50;;;2.23;;
46751;SDS011;32497;48.936;9.270;2023-04-06T09:46:36;7.20;;;2.77;;
46751;SDS011;32497;48.936;9.270;2023-04-06T09:51:38;7.13;;;2.60;;
46751;SDS011;32497;48.936;9.270;2023-04-06T09:56:43;4.80;;;2.30;;
46751;SDS011;32497;48.936;9.270;2023-04-06T10:01:46;5.93;;;2.53;;
46751;SDS011;32497;48.936;9.270;2023-04-06T10:06:51;5.40;;;2.67;;
46751;SDS011;32497;48.936;9.270;2023-04-06T10:11:54;5.00;;;2.17;;
46751;SDS011;32497;48.936;9.270;2023-04-06T10:16:56;6.13;;;2.50;;
46751;SDS011;32497;48.936;9.270;2023-04-06T10:21:58;6.53;;;2.87;;
46751;SDS011;32497;48.936;9.270;2023-04-06T10:27:05;5.50;;;2.53;;
46751;SDS011;32497;48.936;9.270;2023-04-06T10:32:07;5.77;;;2.40;;
46751;SDS011;32497;48.936;9.270;2023-04-06T10:37:15;7.03;;;2.33;;
46751;SDS011;32497;48.936;9.270;2023-04-06T10:42:18;6.80;;;2.80;;
46751;SDS011;32497;48.936;9.270;2023-04-06T10:47:24;6.73;;;3.03;;
46751;SDS011;32497;48.936;9.270;2023-04-06T10:52:25;5.77;;;2.73;;
46751;SDS011;32497;48.936;9.270;2023-04-06T10:57:29;6.37;;;2.93;;
46751;SDS011;32497;48.936;9.270;2023-04-06T11:02:30;5.63;;;2.70;;
46751;SDS011;32497;48.936;9.270;2023-04-06T11:07:32;7.33;;;2.93;;
46751;SDS011;32497;48.936;9.270;2023-04-06T11:12:34;5.63;;;2.73;;
46751;SDS011;32497;48.936;9.270;2023-04-06T11:17:36;5.47;;;2.90;;
46751;SDS011;32497;48.936;9.270;2023-04-06T11:22:47;6.07;;;3.07;;
46751;SDS011;32497;48.936;9.270;2023-04-06T11:27:50;6.63;;;3.03;;
46751;SDS011;32497;48.936;9.270;2023-04-06T11:32:52;6.30;;;3.08;;
46751;SDS011;32497;48.936;9.270;2023-04-06T11:38:02;8.48;;;3.15;;
46751;SDS011;32497;48.936;9.270;2023-04-06T11:43:05;5.47;;;3.15;;
46751;SDS011;32497;48.936;9.270;2023-04-06T11:48:06;8.07;;;3.85;;
46751;SDS011;32497;48.936;9.270;2023-04-06T11:53:18;7.65;;;3.50;;
46751;SDS011;32497;48.936;9.270;2023-04-06T11:58:21;6.50;;;3.33;;
46751;SDS011;32497;48.936;9.270;2023-04-06T12:03:23;7.95;;;3.67;;
46751;SDS011;32497;48.936;9.270;2023-04-06T12:08:24;6.15;;;3.63;;
46751;SDS011;32497;48.936;9.270;2023-04-06T12:13:26;7.03;;;3.72;;
46751;SDS011;32497;48.936;9.270;2023-04-06T12:18:27;7.85;;;3.90;;
46751;SDS011;32497;48.936;9.270;2023-04-06T12:23:29;7.07;;;3.67;;
46751;SDS011;32497;48.936;9.270;2023-04-06T12:28:32;6.88;;;3.40;;
46751;SDS011;32497;48.936;9.270;2023-04-06T12:33:33;7.97;;;4.22;;
46751;SDS011;32497;48.936;9.270;2023-04-06T12:38:34;7.10;;;4.10;;
46751;SDS011;32497;48.936;9.270;2023-04-06T12:43:36;6.25;;;3.40;;
46751;SDS011;32497;48.936;9.270;2023-04-06T12:48:38;9.88;;;3.80;;
46751;SDS011;32497;48.936;9.270;2023-04-06T12:53:39;7.57;;;4.00;;
46751;SDS011;32497;48.936;9.270;2023-04-06T12:58:41;7.38;;;3.83;;
46751;SDS011;32497;48.936;9.270;2023-04-06T13:03:43;6.90;;;3.58;;
46751;SDS011;32497;48.936;9.270;2023-04-06T13:08:44;6.35;;;4.10;;
46751;SDS011;32497;48.936;9.270;2023-04-06T13:13:46;7.93;;;3.88;;
46751;SDS011;32497;48.936;9.270;2023-04-06T13:18:47;8.48;;;4.32;;
46751;SDS011;32497;48.936;9.270;2023-04-06T13:23:49;6.72;;;3.65;;
46751;SDS011;32497;48.936;9.270;2023-04-06T13:28:52;7.57;;;4.03;;
46751;SDS011;32497;48.936;9.270;2023-04-06T13:33:53;7.43;;;3.92;;
46751;SDS011;32497;48.936;9.270;2023-04-06T13:38:54;6.28;;;3.33;;
46751;SDS011;32497;48.936;9.270;2023-04-06T13:43:56;8.52;;;3.78;;
46751;SDS011;32497;48.936;9.270;2023-04-06T13:48:57;7.72;;;3.70;;
46751;SDS011;32497;48.936;9.270;2023-04-06T13:53:59;7.57;;;3.33;;
46751;SDS011;32497;48.936;9.270;2023-04-06T13:59:02;6.40;;;3.30;;
46751;SDS011;32497;48.936;9.270;2023-04-06T14:04:03;6.05;;;3.60;;
46751;SDS011;32497;48.936;9.270;2023-04-06T14:09:04;5.95;;;3.30;;
46751;SDS011;32497;48.936;9.270;2023-04-06T14:14:07;12.60;;;5.32;;
46751;SDS011;32497;48.936;9.270;2023-04-06T14:19:08;6.65;;;4.03;;
46751;SDS011;32497;48.936;9.270;2023-04-06T14:24:09;6.40;;;3.28;;
46751;SDS011;32497;48.936;9.270;2023-04-06T14:29:12;5.97;;;4.15;;
46751;SDS011;32497;48.936;9.270;2023-04-06T14:34:13;7.35;;;4.70;;
46751;SDS011;32497;48.936;9.270;2023-04-06T14:39:14;7.60;;;3.78;;
46751;SDS011;32497;48.936;9.270;2023-04-06T14:44:17;5.60;;;3.20;;
46751;SDS011;32497;48.936;9.270;2023-04-06T14:49:18;5.22;;;3.03;;
46751;SDS011;32497;48.936;9.270;2023-04-06T14:54:19;4.40;;;2.95;;
46751;SDS011;32497;48.936;9.270;2023-04-06T14:59:22;6.93;;;3.10;;
46751;SDS011;32497;48.936;9.270;2023-04-06T15:04:23;5.65;;;2.92;;
46751;SDS011;32497;48.936;9.270;2023-04-06T15:09:24;5.07;;;3.15;;
46751;SDS011;32497;48.936;9.270;2023-04-06T15:14:26;5.57;;;3.08;;
46751;SDS011;32497;48.936;9.270;2023-04-06T15:19:27;5.53;;;3.40;;
46751;SDS011;32497;48.936;9.270;2023-04-06T15:24:29;7.63;;;3.63;;
46751;SDS011;32497;48.936;9.270;2023-04-06T15:34:33;5.50;;;3.33;;
46751;SDS011;32497;48.936;9.270;2023-04-06T15:39:34;7.72;;;3.22;;
46751;SDS011;32497;48.936;9.270;2023-04-06T15:44:37;6.07;;;3.40;;
46751;SDS011;32497;48.936;9.270;2023-04-06T15:49:38;7.10;;;3.33;;
46751;SDS011;32497;48.936;9.270;2023-04-06T15:54:39;9.75;;;3.78;;
46751;SDS011;32497;48.936;9.270;2023-04-06T15:59:41;6.35;;;3.33;;
46751;SDS011;32497;48.936;9.270;2023-04-06T16:04:43;7.57;;;2.47;;
46751;SDS011;32497;48.936;9.270;2023-04-06T16:09:44;5.18;;;2.83;;
46751;SDS011;32497;48.936;9.270;2023-04-06T16:14:46;6.00;;;3.13;;
46751;SDS011;32497;48.936;9.270;2023-04-06T16:19:47;8.15;;;3.30;;
46751;SDS011;32497;48.936;9.270;2023-04-06T16:24:49;6.00;;;3.05;;
46751;SDS011;32497;48.936;9.270;2023-04-06T16:29:51;10.63;;;4.25;;
46751;SDS011;32497;48.936;9.270;2023-04-06T16:34:52;9.02;;;4.95;;
46751;SDS011;32497;48.936;9.270;2023-04-06T16:39:53;9.05;;;4.32;;
46751;SDS011;32497;48.936;9.270;2023-04-06T16:44:56;6.97;;;4.30;;
46751;SDS011;32497;48.936;9.270;2023-04-06T16:49:57;8.20;;;4.22;;
46751;SDS011;32497;48.936;9.270;2023-04-06T16:54:58;10.38;;;4.45;;
46751;SDS011;32497;48.936;9.270;2023-04-06T17:00:01;7.47;;;4.18;;
46751;SDS011;32497;48.936;9.270;2023-04-06T17:05:02;10.40;;;4.40;;
46751;SDS011;32497;48.936;9.270;2023-04-06T17:10:04;8.68;;;4.50;;
46751;SDS011;32497;48.936;9.270;2023-04-06T17:15:08;10.53;;;4.93;;
46751;SDS011;32497;48.936;9.270;2023-04-06T17:20:10;8.40;;;4.40;;
46751;SDS011;32497;48.936;9.270;2023-04-06T17:25:11;7.47;;;2.77;;
46751;SDS011;32497;48.936;9.270;2023-04-06T17:30:14;7.00;;;2.93;;
46751;SDS011;32497;48.936;9.270;2023-04-06T17:35:15;5.87;;;2.70;;
46751;SDS011;32497;48.936;9.270;2023-04-06T17:40:16;4.33;;;2.43;;
46751;SDS011;32497;48.936;9.270;2023-04-06T17:45:18;5.70;;;2.33;;
46751;SDS011;32497;48.936;9.270;2023-04-06T17:50:19;4.60;;;2.40;;
46751;SDS011;32497;48.936;9.270;2023-04-06T17:55:20;4.40;;;2.33;;
46751;SDS011;32497;48.936;9.270;2023-04-06T18:00:23;5.17;;;2.50;;
46751;SDS011;32497;48.936;9.270;2023-04-06T18:05:26;5.57;;;2.43;;
46751;SDS011;32497;48.936;9.270;2023-04-06T18:10:27;4.83;;;2.30;;
46751;SDS011;32497;48.936;9.270;2023-04-06T18:15:29;6.20;;;2.50;;
46751;SDS011;32497;48.936;9.270;2023-04-06T18:20:30;5.50;;;2.80;;
46751;SDS011;32497;48.936;9.270;2023-04-06T18:25:36;4.77;;;2.47;;
46751;SDS011;32497;48.936;9.270;2023-04-06T18:30:39;5.07;;;2.13;;
46751;SDS011;32497;48.936;9.270;2023-04-06T18:35:40;3.77;;;2.03;;
46751;SDS011;32497;48.936;9.270;2023-04-06T18:40:41;3.47;;;2.00;;
46751;SDS011;32497;48.936;9.270;2023-04-06T18:45:43;5.07;;;3.13;;
46751;SDS011;32497;48.936;9.270;2023-04-06T18:50:50;4.73;;;2.40;;
46751;SDS011;32497;48.936;9.270;2023-04-06T18:55:52;6.80;;;2.77;;
46751;SDS011;32497;48.936;9.270;2023-04-06T19:00:55;4.20;;;2.20;;
46751;SDS011;32497;48.936;9.270;2023-04-06T19:05:56;5.00;;;2.10;;
46751;SDS011;32497;48.936;9.270;2023-04-06T19:10:57;4.47;;;2.20;;
46751;SDS011;32497;48.936;9.270;2023-04-06T19:16:00;3.30;;;1.90;;
46751;SDS011;32497;48.936;9.270;2023-04-06T19:21:01;3.77;;;2.03;;
46751;SDS011;32497;48.936;9.270;2023-04-06T19:26:02;5.47;;;2.70;;
46751;SDS011;32497;48.936;9.270;2023-04-06T19:31:05;6.77;;;2.67;;
46751;SDS011;32497;48.936;9.270;2023-04-06T19:36:07;5.77;;;2.50;;
46751;SDS011;32497;48.936;9.270;2023-04-06T19:41:09;4.00;;;2.10;;
46751;SDS011;32497;48.936;9.270;2023-04-06T19:46:11;4.13;;;2.07;;
46751;SDS011;32497;48.936;9.270;2023-04-06T19:51:12;4.23;;;2.00;;
46751;SDS011;32497;48.936;9.270;2023-04-06T19:56:13;4.43;;;2.30;;
46751;SDS011;32497;48.936;9.270;2023-04-06T20:01:17;3.97;;;2.27;;
46751;SDS011;32497;48.936;9.270;2023-04-06T20:06:18;4.50;;;2.17;;
46751;SDS011;32497;48.936;9.270;2023-04-06T20:11:20;5.37;;;2.47;;
46751;SDS011;32497;48.936;9.270;2023-04-06T20:16:22;3.33;;;2.27;;
46751;SDS011;32497;48.936;9.270;2023-04-06T20:21:23;3.57;;;1.97;;
46751;SDS011;32497;48.936;9.270;2023-04-06T20:26:24;5.63;;;2.10;;
46751;SDS011;32497;48.936;9.270;2023-04-06T20:31:27;3.07;;;1.97;;
46751;SDS011;32497;48.936;9.270;2023-04-06T20:36:29;6.03;;;2.37;;
46751;SDS011;32497;48.936;9.270;2023-04-06T20:41:31;4.33;;;1.40;;
46751;SDS011;32497;48.936;9.270;2023-04-06T20:46:33;2.40;;;1.40;;
46751;SDS011;32497;48.936;9.270;2023-04-06T20:51:34;3.80;;;1.53;;
46751;SDS011;32497;48.936;9.270;2023-04-06T20:56:35;2.50;;;1.27;;
46751;SDS011;32497;48.936;9.270;2023-04-06T21:01:38;2.10;;;1.20;;
46751;SDS011;32497;48.936;9.270;2023-04-06T21:06:39;1.63;;;1.10;;
46751;SDS011;32497;48.936;9.270;2023-04-06T21:11:40;1.60;;;0.70;;
46751;SDS011;32497;48.936;9.270;2023-04-06T21:16:43;1.60;;;1.03;;
46751;SDS011;32497;48.936;9.270;2023-04-06T21:21:44;2.00;;;1.23;;
46751;SDS011;32497;48.936;9.270;2023-04-06T21:26:45;1.80;;;0.90;;
46751;SDS011;32497;48.936;9.270;2023-04-06T21:31:47;1.57;;;0.83;;
46751;SDS011;32497;48.936;9.270;2023-04-06T21:36:48;2.50;;;1.20;;
46751;SDS011;32497;48.936;9.270;2023-04-06T21:41:50;3.23;;;1.20;;
46751;SDS011;32497;48.936;9.270;2023-04-06T21:46:52;2.10;;;1.00;;
46751;SDS011;32497;48.936;9.270;2023-04-06T21:51:53;1.17;;;0.43;;
46751;SDS011;32497;48.936;9.270;2023-04-06T21:56:54;2.63;;;1.37;;
46751;SDS011;32497;48.936;9.270;2023-04-06T22:01:57;4.03;;;1.43;;
46751;SDS011;32497;48.936;9.270;2023-04-06T22:06:58;3.77;;;1.70;;
46751;SDS011;32497;48.936;9.270;2023-04-06T22:11:59;4.90;;;1.47;;
46751;SDS011;32497;48.936;9.270;2023-04-06T22:17:02;4.10;;;1.93;;
46751;SDS011;32497;48.936;9.270;2023-04-06T22:22:03;5.63;;;2.30;;
46751;SDS011;32497;48.936;9.270;2023-04-06T22:27:04;5.27;;;2.37;;
46751;SDS011;32497;48.936;9.270;2023-04-06T22:32:06;5.03;;;2.57;;
46751;SDS011;32497;48.936;9.270;2023-04-06T22:37:08;4.40;;;2.47;;
46751;SDS011;32497;48.936;9.270;2023-04-06T22:42:09;5.20;;;2.60;;
46751;SDS011;32497;48.936;9.270;2023-04-06T22:47:11;5.53;;;2.50;;
46751;SDS011;32497;48.936;9.270;2023-04-06T22:52:12;5.77;;;2.93;;
46751;SDS011;32497;48.936;9.270;2023-04-06T22:57:13;5.80;;;2.50;;
46751;SDS011;32497;48.936;9.270;2023-04-06T23:02:16;4.43;;;2.63;;
46751;SDS011;32497;48.936;9.270;2023-04-06T23:07:17;5.80;;;2.83;;
46751;SDS011;32497;48.936;9.270;2023-04-06T23:12:18;5.50;;;2.53;;
46751;SDS011;32497;48.936;9.270;2023-04-06T23:17:20;7.27;;;3.20;;
46751;SDS011;32497;48.936;9.270;2023-04-06T23:22:22;6.93;;;3.47;;
46751;SDS011;32497;48.936;9.270;2023-04-06T23:27:23;5.80;;;3.23;;
46751;SDS011;32497;48.936;9.270;2023-04-06T23:32:25;8.23;;;3.20;;
46751;SDS011;32497;48.936;9.270;2023-04-06T23:37:26;7.27;;;3.33;;
46751;SDS011;32497;48.936;9.270;2023-04-06T23:42:27;6.70;;;3.40;;
46751;SDS011;32497;48.936;9.270;2023-04-06T23:47:30;7.10;;;3.40;;
46751;SDS011;32497;48.936;9.270;2023-04-06T23:52:31;6.43;;;3.00;;
46751;SDS011;32497;48.936;9.270;2023-04-06T23:57:32;6.17;;;3.60;;
